createdAt,value
2022-07-26T00:00:40.971Z,26.40
2022-07-26T00:03:29.609Z,26.30
2022-07-26T00:06:16.165Z,26.00
2022-07-26T00:09:06.303Z,26.00
2022-07-26T00:11:52.899Z,25.80
2022-07-26T00:14:39.377Z,26.00
2022-07-26T00:17:27.770Z,25.90
2022-07-26T00:20:15.755Z,25.70
2022-07-26T00:23:03.033Z,25.70
2022-07-26T00:25:49.512Z,25.80
2022-07-26T00:28:35.941Z,25.90
2022-07-26T00:31:23.547Z,26.00
2022-07-26T00:34:10.427Z,26.00
2022-07-26T00:36:58.239Z,25.90
2022-07-26T00:39:44.947Z,26.00
2022-07-26T00:42:31.345Z,26.00
2022-07-26T00:45:18.596Z,25.80
2022-07-26T00:48:05.773Z,25.70
2022-07-26T00:50:54.381Z,25.10
2022-07-26T00:53:43.353Z,25.60
2022-07-26T00:56:30.322Z,25.60
2022-07-26T00:59:16.850Z,25.50
2022-07-26T01:02:05.690Z,25.40
2022-07-26T01:04:52.389Z,25.40
2022-07-26T01:07:39.997Z,25.40
2022-07-26T01:10:28.033Z,25.30
2022-07-26T01:13:19.836Z,25.30
2022-07-26T01:16:07.042Z,25.40
2022-07-26T01:18:53.848Z,25.30
2022-07-26T01:21:41.784Z,25.30
2022-07-26T01:24:28.727Z,25.10
2022-07-26T01:27:15.359Z,25.20
2022-07-26T01:30:01.782Z,25.10
2022-07-26T01:32:48.188Z,25.20
2022-07-26T01:35:35.268Z,25.30
2022-07-26T01:38:23.409Z,25.40
2022-07-26T01:41:10.685Z,25.40
2022-07-26T01:43:57.300Z,25.30
2022-07-26T01:46:43.871Z,25.10
2022-07-26T01:49:30.416Z,25.00
2022-07-26T01:52:16.776Z,25.00
2022-07-26T01:55:05.120Z,25.00
2022-07-26T01:57:51.807Z,24.90
2022-07-26T02:00:38.194Z,24.80
2022-07-26T02:03:24.588Z,24.80
2022-07-26T02:06:11.508Z,24.90
2022-07-26T02:09:01.767Z,24.90
2022-07-26T02:11:50.217Z,24.70
2022-07-26T02:14:36.861Z,24.60
2022-07-26T02:17:23.399Z,24.70
2022-07-26T02:20:10.580Z,24.80
2022-07-26T02:22:57.241Z,24.80
2022-07-26T02:25:43.732Z,24.70
2022-07-26T02:28:31.651Z,24.40
2022-07-26T02:31:18.295Z,24.40
2022-07-26T02:34:05.396Z,24.30
2022-07-26T02:36:52.689Z,24.20
2022-07-26T02:39:39.106Z,24.20
2022-07-26T02:42:25.845Z,24.30
2022-07-26T02:45:13.895Z,24.30
2022-07-26T02:48:00.302Z,24.40
2022-07-26T02:50:46.602Z,24.50
2022-07-26T02:53:33.048Z,24.60
2022-07-26T02:56:19.433Z,24.60
2022-07-26T02:59:06.346Z,24.80
2022-07-26T03:01:54.477Z,24.90
2022-07-26T03:04:41.132Z,24.90
2022-07-26T03:07:27.952Z,24.80
2022-07-26T03:10:15.192Z,24.70
2022-07-26T03:13:02.121Z,24.90
2022-07-26T03:15:49.306Z,25.10
2022-07-26T03:18:37.361Z,25.10
2022-07-26T03:21:24.177Z,25.00
2022-07-26T03:24:11.095Z,25.00
2022-07-26T03:26:57.881Z,25.20
2022-07-26T03:29:44.325Z,25.10
2022-07-26T03:32:31.137Z,25.20
2022-07-26T03:35:18.898Z,25.20
2022-07-26T03:38:05.721Z,25.10
2022-07-26T03:40:52.161Z,25.10
2022-07-26T03:43:38.559Z,25.00
2022-07-26T03:46:25.122Z,24.80
2022-07-26T03:49:16.419Z,24.90
2022-07-26T03:52:04.991Z,25.00
2022-07-26T03:54:51.348Z,24.90
2022-07-26T03:57:36.718Z,24.90
2022-07-26T04:00:23.177Z,24.90
2022-07-26T04:03:09.708Z,24.50
2022-07-26T04:05:56.906Z,24.30
2022-07-26T04:08:44.735Z,24.50
2022-07-26T04:11:31.487Z,24.20
2022-07-26T04:14:18.036Z,23.90
2022-07-26T04:17:04.388Z,23.90
2022-07-26T04:19:51.314Z,23.90
2022-07-26T04:22:39.084Z,23.70
2022-07-26T04:25:27.103Z,23.40
2022-07-26T04:28:29.019Z,23.30
2022-07-26T04:31:15.720Z,23.50
2022-07-26T04:34:02.742Z,23.80
2022-07-26T04:36:48.975Z,23.40
2022-07-26T04:39:35.363Z,23.50
2022-07-26T04:42:23.186Z,23.70
2022-07-26T04:45:12.694Z,23.50
2022-07-26T04:47:59.812Z,23.40
2022-07-26T04:50:46.598Z,23.00
2022-07-26T04:53:33.383Z,23.00
2022-07-26T04:56:19.819Z,23.10
2022-07-26T04:59:07.837Z,22.90
2022-07-26T05:01:54.563Z,23.00
2022-07-26T05:04:41.419Z,22.60
2022-07-26T05:07:27.874Z,22.60
2022-07-26T05:10:14.876Z,22.90
2022-07-26T05:13:01.305Z,23.00
2022-07-26T05:15:49.140Z,22.90
2022-07-26T05:18:43.893Z,22.90
2022-07-26T05:21:35.833Z,23.10
2022-07-26T05:24:22.152Z,23.20
2022-07-26T05:27:08.631Z,23.10
2022-07-26T05:29:55.923Z,23.10
2022-07-26T05:32:43.950Z,22.80
2022-07-26T05:35:30.878Z,22.90
2022-07-26T05:38:17.311Z,22.60
2022-07-26T05:41:04.757Z,22.60
2022-07-26T05:43:51.514Z,22.70
2022-07-26T05:46:38.418Z,23.00
2022-07-26T05:49:27.115Z,22.90
2022-07-26T05:52:26.975Z,23.10
2022-07-26T05:55:13.681Z,22.90
2022-07-26T05:58:00.277Z,22.70
2022-07-26T06:00:48.603Z,22.40
2022-07-26T06:03:35.753Z,22.70
2022-07-26T06:06:23.990Z,22.70
2022-07-26T06:09:10.373Z,22.60
2022-07-26T06:11:56.957Z,22.50
2022-07-26T06:14:43.333Z,22.30
2022-07-26T06:17:30.334Z,22.10
2022-07-26T06:20:17.316Z,22.10
2022-07-26T06:23:05.110Z,22.20
2022-07-26T06:25:51.696Z,22.10
2022-07-26T06:28:39.464Z,22.00
2022-07-26T06:31:25.974Z,22.20
2022-07-26T06:34:12.924Z,22.30
2022-07-26T06:36:59.743Z,22.40
2022-07-26T06:39:47.479Z,22.60
2022-07-26T06:42:34.222Z,22.70
2022-07-26T06:45:20.917Z,22.50
2022-07-26T06:48:07.805Z,22.50
2022-07-26T06:50:54.476Z,21.90
2022-07-26T06:53:41.117Z,22.00
2022-07-26T06:56:29.132Z,22.20
2022-07-26T06:59:15.875Z,22.50
2022-07-26T07:02:02.739Z,22.70
2022-07-26T07:04:49.606Z,22.80
2022-07-26T07:07:37.405Z,22.70
2022-07-26T07:10:25.262Z,22.50
2022-07-26T07:13:13.644Z,22.60
2022-07-26T07:16:00.205Z,22.80
2022-07-26T07:18:47.072Z,23.20
2022-07-26T07:21:33.879Z,22.70
2022-07-26T07:24:20.725Z,23.30
2022-07-26T07:27:13.007Z,23.20
2022-07-26T07:30:04.110Z,23.30
2022-07-26T07:32:51.138Z,23.10
2022-07-26T07:35:37.801Z,23.10
2022-07-26T07:38:25.033Z,23.00
2022-07-26T07:41:11.890Z,23.30
2022-07-26T07:43:58.601Z,23.50
2022-07-26T07:46:46.347Z,23.30
2022-07-26T07:49:33.119Z,23.40
2022-07-26T07:52:22.621Z,23.60
2022-07-26T07:58:19.007Z,23.90
2022-07-26T08:01:05.873Z,24.20
2022-07-26T08:03:55.632Z,24.10
2022-07-26T08:06:42.930Z,24.30
2022-07-26T08:09:37.383Z,24.60
2022-07-26T08:12:29.825Z,24.60
2022-07-26T08:15:16.316Z,24.60
2022-07-26T08:18:06.518Z,25.10
2022-07-26T08:20:56.941Z,25.40
2022-07-26T08:23:44.110Z,25.70
2022-07-26T08:26:30.955Z,25.70
2022-07-26T08:29:17.429Z,25.50
2022-07-26T08:32:04.704Z,25.80
2022-07-26T08:34:51.448Z,26.20
2022-07-26T08:37:39.188Z,26.50
2022-07-26T08:40:26.066Z,26.20
2022-07-26T08:43:12.695Z,25.40
2022-07-26T08:46:02.408Z,25.30
2022-07-26T08:48:49.395Z,25.90
2022-07-26T08:51:40.035Z,26.70
2022-07-26T08:54:28.238Z,27.00
2022-07-26T08:57:16.086Z,27.30
2022-07-26T09:00:16.275Z,27.30
2022-07-26T09:03:04.157Z,27.20
2022-07-26T09:05:50.621Z,27.10
2022-07-26T09:08:37.894Z,27.20
2022-07-26T09:11:33.394Z,27.70
2022-07-26T09:14:20.089Z,27.50
2022-07-26T09:17:07.257Z,27.80
2022-07-26T09:20:07.909Z,28.00
2022-07-26T09:23:03.174Z,27.40
2022-07-26T09:25:49.846Z,27.00
2022-07-26T09:28:37.671Z,27.10
2022-07-26T09:31:32.304Z,26.30
2022-07-26T09:34:26.464Z,27.30
2022-07-26T09:37:13.667Z,27.90
2022-07-26T09:40:03.053Z,27.60
2022-07-26T09:42:57.301Z,27.80
2022-07-26T09:45:45.261Z,27.30
2022-07-26T09:48:52.109Z,27.00
2022-07-26T09:51:40.679Z,26.90
2022-07-26T09:54:33.994Z,26.70
2022-07-26T09:57:21.830Z,27.00
2022-07-26T10:00:09.904Z,27.80
2022-07-26T10:02:58.055Z,28.50
2022-07-26T10:05:44.926Z,28.60
2022-07-26T10:08:31.891Z,28.50
2022-07-26T10:11:20.249Z,28.40
2022-07-26T10:14:38.757Z,28.10
2022-07-26T10:17:46.628Z,27.80
2022-07-26T10:20:49.549Z,28.10
2022-07-26T10:23:38.253Z,29.00
2022-07-26T10:26:43.294Z,29.70
2022-07-26T10:29:31.061Z,30.10
2022-07-26T10:32:20.244Z,30.80
2022-07-26T10:35:31.487Z,32.00
2022-07-26T10:38:26.958Z,32.00
2022-07-26T10:41:13.363Z,31.70
2022-07-26T10:44:14.596Z,30.60
2022-07-26T10:47:12.914Z,28.80
2022-07-26T10:50:00.363Z,28.00
2022-07-26T10:52:59.767Z,27.40
2022-07-26T10:55:49.204Z,26.90
2022-07-26T10:58:44.311Z,26.80
2022-07-26T11:01:36.798Z,27.10
2022-07-26T11:04:24.891Z,27.30
2022-07-26T11:07:12.811Z,27.50
2022-07-26T11:10:00.172Z,27.90
2022-07-26T11:12:47.967Z,28.30
2022-07-26T11:15:36.326Z,28.10
2022-07-26T11:18:27.903Z,28.50
2022-07-26T11:21:16.178Z,29.40
2022-07-26T11:24:03.886Z,29.90
2022-07-26T11:26:51.008Z,30.70
2022-07-26T11:29:41.078Z,31.90
2022-07-26T11:32:28.146Z,31.70
2022-07-26T11:35:15.047Z,31.70
2022-07-26T11:38:11.851Z,32.80
2022-07-26T11:40:59.145Z,33.00
2022-07-26T11:43:45.842Z,32.80
2022-07-26T11:46:39.377Z,30.90
2022-07-26T11:49:59.989Z,30.60
2022-07-26T11:52:35.014Z,29.60
2022-07-26T11:55:27.543Z,28.90
2022-07-26T11:58:14.128Z,30.20
2022-07-26T12:01:01.046Z,31.40
2022-07-26T12:03:51.053Z,31.90
2022-07-26T12:06:40.160Z,32.70
2022-07-26T12:09:31.639Z,33.80
2022-07-26T12:12:21.792Z,34.90
2022-07-26T12:15:09.119Z,35.90
2022-07-26T12:17:59.745Z,33.90
2022-07-26T12:21:04.491Z,32.40
2022-07-26T12:23:53.146Z,31.50
2022-07-26T12:26:40.330Z,32.30
2022-07-26T12:29:33.088Z,32.10
2022-07-26T12:32:21.444Z,34.10
2022-07-26T12:35:10.036Z,34.20
2022-07-26T12:37:57.894Z,33.30
2022-07-26T12:40:44.602Z,32.10
2022-07-26T12:43:40.386Z,31.10
2022-07-26T12:46:26.843Z,30.40
2022-07-26T12:49:14.099Z,30.80
2022-07-26T12:52:00.751Z,32.70
2022-07-26T12:54:51.716Z,35.30
2022-07-26T12:57:38.328Z,37.60
2022-07-26T13:00:32.926Z,38.80
2022-07-26T13:03:19.395Z,37.80
2022-07-26T13:06:05.781Z,36.60
2022-07-26T13:08:52.379Z,36.60
2022-07-26T13:11:40.125Z,37.90
2022-07-26T13:14:26.975Z,37.30
2022-07-26T13:17:13.793Z,35.30
2022-07-26T13:20:00.483Z,35.30
2022-07-26T13:22:47.482Z,34.00
2022-07-26T13:25:38.564Z,34.10
2022-07-26T13:28:28.331Z,36.30
2022-07-26T13:31:15.149Z,35.50
2022-07-26T13:34:02.014Z,34.10
2022-07-26T13:36:48.478Z,33.20
2022-07-26T13:39:35.155Z,32.20
2022-07-26T13:42:21.573Z,31.50
2022-07-26T13:45:11.209Z,31.10
2022-07-26T13:47:59.500Z,30.60
2022-07-26T13:50:46.782Z,30.50
2022-07-26T13:53:33.333Z,29.80
2022-07-26T13:56:19.746Z,29.40
2022-07-26T13:59:06.072Z,29.10
2022-07-26T14:01:54.771Z,28.90
2022-07-26T14:04:42.554Z,28.90
2022-07-26T14:07:28.935Z,28.90
2022-07-26T14:10:15.493Z,28.90
2022-07-26T14:13:02.242Z,29.20
2022-07-26T14:15:48.771Z,29.00
2022-07-26T14:18:36.501Z,28.90
2022-07-26T14:21:23.445Z,28.90
2022-07-26T14:24:10.661Z,29.00
2022-07-26T14:26:59.622Z,28.70
2022-07-26T14:29:47.084Z,28.90
2022-07-26T14:32:33.483Z,29.20
2022-07-26T14:35:21.437Z,29.90
2022-07-26T14:38:08.049Z,30.70
2022-07-26T14:40:54.898Z,31.30
2022-07-26T14:43:42.888Z,31.00
2022-07-26T14:46:29.712Z,31.00
2022-07-26T14:49:16.543Z,30.50
2022-07-26T14:52:05.125Z,30.20
2022-07-26T14:54:51.689Z,30.20
2022-07-26T14:57:39.259Z,30.50
2022-07-26T15:00:26.510Z,30.50
2022-07-26T15:03:13.046Z,30.40
2022-07-26T15:05:59.381Z,30.10
2022-07-26T15:08:47.277Z,30.00
2022-07-26T15:11:34.143Z,29.90
2022-07-26T15:14:20.768Z,30.50
2022-07-26T15:17:07.153Z,30.50
2022-07-26T15:19:53.925Z,31.30
2022-07-26T15:22:40.667Z,31.70
2022-07-26T15:25:28.526Z,31.70
2022-07-26T15:28:15.060Z,30.50
2022-07-26T15:31:01.621Z,30.10
2022-07-26T15:33:48.186Z,29.70
2022-07-26T15:36:35.499Z,29.80
2022-07-26T15:39:22.483Z,29.90
2022-07-26T15:42:10.748Z,30.00
2022-07-26T15:45:09.312Z,29.80
2022-07-26T15:48:10.941Z,29.80
2022-07-26T15:51:01.915Z,30.10
2022-07-26T15:53:48.888Z,30.30
2022-07-26T15:56:36.467Z,30.20
2022-07-26T15:59:25.328Z,30.60
2022-07-26T16:02:13.852Z,30.80
2022-07-26T16:05:01.769Z,30.30
2022-07-26T16:07:50.845Z,30.20
2022-07-26T16:10:40.044Z,30.20
2022-07-26T16:13:27.574Z,30.30
2022-07-26T16:16:16.053Z,30.40
2022-07-26T16:19:03.060Z,29.50
2022-07-26T16:21:50.628Z,29.80
2022-07-26T16:24:38.338Z,30.00
2022-07-26T16:27:25.440Z,30.00
2022-07-26T16:30:14.378Z,29.50
2022-07-26T16:33:03.317Z,29.70
2022-07-26T16:35:50.258Z,29.60
2022-07-26T16:38:37.583Z,29.50
2022-07-26T16:41:24.858Z,29.50
2022-07-26T16:44:12.214Z,29.60
2022-07-26T16:46:59.747Z,29.90
2022-07-26T16:49:48.654Z,30.20
2022-07-26T16:52:35.960Z,30.50
2022-07-26T16:55:23.302Z,30.80
2022-07-26T16:58:10.326Z,30.90
2022-07-26T17:00:57.391Z,31.00
2022-07-26T17:03:45.885Z,30.70
2022-07-26T17:06:34.170Z,30.40
2022-07-26T17:09:21.033Z,30.10
2022-07-26T17:12:11.340Z,30.10
2022-07-26T17:14:58.892Z,29.70
2022-07-26T17:17:48.809Z,29.50
2022-07-26T17:20:37.273Z,29.20
2022-07-26T17:23:29.395Z,29.30
2022-07-26T17:26:17.677Z,29.20
2022-07-26T17:29:06.430Z,29.20
2022-07-26T17:31:55.060Z,29.00
2022-07-26T17:34:42.002Z,28.50
2022-07-26T17:37:30.979Z,28.90
2022-07-26T17:40:22.537Z,28.90
2022-07-26T17:43:13.116Z,29.10
2022-07-26T17:46:00.112Z,29.00
2022-07-26T17:48:47.721Z,29.30
2022-07-26T17:51:35.204Z,28.90
2022-07-26T17:54:22.264Z,28.90
2022-07-26T17:57:11.036Z,28.50
2022-07-26T17:59:59.167Z,28.30
2022-07-26T18:02:48.398Z,28.20
2022-07-26T18:05:39.592Z,28.30
2022-07-26T18:08:28.256Z,28.40
2022-07-26T18:11:15.375Z,28.40
2022-07-26T18:14:03.698Z,28.20
2022-07-26T18:16:54.372Z,28.10
2022-07-26T18:19:41.776Z,28.00
2022-07-26T18:22:28.485Z,27.60
2022-07-26T18:25:15.802Z,27.50
2022-07-26T18:28:06.838Z,27.70
2022-07-26T18:30:55.530Z,27.70
2022-07-26T18:33:42.636Z,27.70
2022-07-26T18:36:29.261Z,27.40
2022-07-26T18:39:15.664Z,27.30
2022-07-26T18:42:02.261Z,27.30
2022-07-26T18:44:49.501Z,27.20
2022-07-26T18:47:37.996Z,27.10
2022-07-26T18:50:25.622Z,27.10
2022-07-26T18:53:13.087Z,27.10
2022-07-26T18:56:00.327Z,26.80
2022-07-26T18:58:48.445Z,26.80
2022-07-26T19:01:35.792Z,26.90
2022-07-26T19:04:23.767Z,26.90
2022-07-26T19:07:10.534Z,26.50
2022-07-26T19:09:58.812Z,26.70
2022-07-26T19:12:45.834Z,26.70
2022-07-26T19:15:35.468Z,26.70
2022-07-26T19:18:22.586Z,26.80
2022-07-26T19:21:10.554Z,26.70
2022-07-26T19:23:58.054Z,26.70
2022-07-26T19:26:45.367Z,26.90
2022-07-26T19:29:32.037Z,27.00
2022-07-26T19:32:18.934Z,27.30
2022-07-26T19:35:07.063Z,27.10
2022-07-26T19:37:55.591Z,26.90
2022-07-26T19:40:44.145Z,27.00
2022-07-26T19:43:30.903Z,27.00
2022-07-26T19:46:17.700Z,27.10
2022-07-26T19:49:05.063Z,27.00
2022-07-26T19:51:51.862Z,26.80
2022-07-26T19:54:40.551Z,26.70
2022-07-26T19:57:27.410Z,26.30
2022-07-26T20:00:14.777Z,26.50
2022-07-26T20:03:01.671Z,26.60
2022-07-26T20:05:48.659Z,26.60
2022-07-26T20:08:35.382Z,26.30
2022-07-26T20:11:24.916Z,26.70
2022-07-26T20:14:11.786Z,26.70
2022-07-26T20:16:58.380Z,26.60
2022-07-26T20:19:45.357Z,26.60
2022-07-26T20:22:32.344Z,26.70
2022-07-26T20:25:21.585Z,26.60
2022-07-26T20:28:10.343Z,26.50
2022-07-26T20:30:57.183Z,26.60
2022-07-26T20:33:44.708Z,26.60
2022-07-26T20:36:31.455Z,26.60
2022-07-26T20:39:18.047Z,26.60
2022-07-26T20:42:05.627Z,26.70
2022-07-26T20:44:57.553Z,26.60
2022-07-26T20:47:44.558Z,26.70
2022-07-26T20:50:31.750Z,26.60
2022-07-26T20:53:18.502Z,26.50
2022-07-26T20:56:05.854Z,26.60
2022-07-26T20:58:52.620Z,26.60
2022-07-26T21:01:41.287Z,26.60
2022-07-26T21:04:30.629Z,26.50
2022-07-26T21:07:17.320Z,26.50
2022-07-26T21:10:04.123Z,26.30
2022-07-26T21:12:52.600Z,26.30
2022-07-26T21:15:40.566Z,26.40
2022-07-26T21:18:29.903Z,26.00
2022-07-26T21:21:16.927Z,26.30
2022-07-26T21:24:03.880Z,26.30
2022-07-26T21:26:55.278Z,26.50
2022-07-26T21:29:42.339Z,26.30
2022-07-26T21:32:31.874Z,26.30
2022-07-26T21:35:20.697Z,26.20
2022-07-26T21:38:08.121Z,26.00
2022-07-26T21:40:54.908Z,26.00
2022-07-26T21:43:41.928Z,25.70
2022-07-26T21:46:29.200Z,25.70
2022-07-26T21:49:16.299Z,25.60
2022-07-26T21:52:05.085Z,25.50
2022-07-26T21:54:51.676Z,25.50
2022-07-26T21:57:40.339Z,25.40
2022-07-26T22:00:26.969Z,25.20
2022-07-26T22:03:15.217Z,25.00
2022-07-26T22:06:02.467Z,25.10
2022-07-26T22:08:50.672Z,25.00
2022-07-26T22:11:37.500Z,25.00
2022-07-26T22:14:23.897Z,25.00
2022-07-26T22:17:10.361Z,24.70
2022-07-26T22:19:56.959Z,24.70
2022-07-26T22:22:43.382Z,24.90
2022-07-26T22:25:32.410Z,24.90
2022-07-26T22:28:19.240Z,24.90
2022-07-26T22:31:05.891Z,24.80
2022-07-26T22:33:52.368Z,24.90
2022-07-26T22:36:45.020Z,24.70
2022-07-26T22:39:31.916Z,24.90
2022-07-26T22:42:19.709Z,24.90
2022-07-26T22:45:09.641Z,24.80
2022-07-26T22:47:56.753Z,24.90
2022-07-26T22:50:44.231Z,24.70
2022-07-26T22:53:31.199Z,24.50
2022-07-26T22:56:19.866Z,24.40
2022-07-26T22:59:08.421Z,24.20
2022-07-26T23:01:55.555Z,24.20
2022-07-26T23:04:42.224Z,24.30
2022-07-26T23:07:30.549Z,24.30
2022-07-26T23:10:19.179Z,24.30
2022-07-26T23:13:05.979Z,24.40
2022-07-26T23:15:59.680Z,24.30
2022-07-26T23:18:47.102Z,24.50
2022-07-26T23:21:33.467Z,24.40
2022-07-26T23:24:20.094Z,24.30
2022-07-26T23:27:07.066Z,24.30
2022-07-26T23:29:53.533Z,24.10
2022-07-26T23:32:41.435Z,23.90
2022-07-26T23:35:27.924Z,23.90
2022-07-26T23:38:14.441Z,23.90
2022-07-26T23:41:01.433Z,23.90
2022-07-26T23:43:48.422Z,23.90
2022-07-26T23:46:35.101Z,23.90
2022-07-26T23:49:23.397Z,23.80
2022-07-26T23:52:10.147Z,23.90
2022-07-26T23:54:57.201Z,24.00
2022-07-26T23:57:43.657Z,24.00
